Daikoku — JD3247 — position and weather

sailwx.info

Track history (hours):
 
Tides and Currents Weather Stations Pressure Air Temp Water Temp Dewpoint Dewpoint Depression Visibility Wind Speed Wind Dir Waves Ship Positions

Daikoku

Last reported at 2016-Aug-26 10:16 UTC. Time now 2016-Aug-27 01:13 UTC.
Position N 34°22' E 135°01'.

Length 95 m; draft 3.4 m.

Type: Cargo ship. MMSI: 431003009.

Date/timePositionNaut miles runAvg speedWind from/ knotsBaromVisibWave heightAir tempDewpointWater temp
2016-Aug-26 10:16N 34°22' E 135°01'811.1
2016-Aug-26 09:33N 34°28' E 135°08'1111.5
2016-Aug-26 08:33N 34°36' E 135°17'6 5.4
2016-Aug-26 07:31N 34°41' E 135°17'0 0.0
2016-Aug-26 06:31N 34°41' E 135°17'0 0.0
2016-Aug-26 04:31N 34°41' E 135°17'1 0.8
2016-Aug-26 03:33N 34°41' E 135°18'4 3.9
2016-Aug-26 02:29N 34°41' E 135°13'0 0.0
2016-Aug-26 01:29N 34°41' E 135°13'0 0.0
2016-Aug-26 00:29N 34°41' E 135°13'0 0.0
2016-Aug-25 23:29N 34°41' E 135°13'0 0.0
2016-Aug-25 22:29N 34°41' E 135°13'0 0.0
2016-Aug-25 21:29N 34°41' E 135°13'0 0.0
2016-Aug-25 20:23N 34°41' E 135°13'0 0.0
2016-Aug-25 19:29N 34°41' E 135°13'0 0.0
2016-Aug-25 18:29N 34°41' E 135°13'0 0.0
2016-Aug-25 17:29N 34°41' E 135°13'0 0.0
2016-Aug-25 16:29N 34°41' E 135°13'0 0.0
2016-Aug-25 15:29N 34°41' E 135°13'0 0.0
2016-Aug-25 14:29N 34°41' E 135°13'0 0.0
2016-Aug-25 13:29N 34°41' E 135°13'0 0.0
2016-Aug-25 12:29N 34°41' E 135°13'0 0.0
2016-Aug-25 11:29N 34°41' E 135°13'0 0.0
2016-Aug-25 10:23N 34°41' E 135°13'0 0.0
2016-Aug-25 09:29N 34°41' E 135°13'0 0.0
2016-Aug-25 08:29N 34°41' E 135°13'0 0.0
2016-Aug-25 07:11N 34°41' E 135°13'0 0.0
2016-Aug-25 06:23N 34°41' E 135°13'0 0.0
2016-Aug-25 04:29N 34°41' E 135°13'0 0.0
2016-Aug-25 03:29N 34°41' E 135°13'0 0.0
2016-Aug-25 02:29N 34°41' E 135°13'0 0.0
2016-Aug-25 01:29N 34°41' E 135°13'0 0.0
2016-Aug-25 00:29N 34°41' E 135°13'0 0.0
2016-Aug-24 23:29N 34°41' E 135°13'0 0.0
2016-Aug-24 22:23N 34°41' E 135°13'0 0.0
2016-Aug-24 21:23N 34°41' E 135°13'0 0.0
2016-Aug-24 20:29N 34°41' E 135°13'0 0.0
2016-Aug-24 19:29N 34°41' E 135°13'0 0.0
2016-Aug-24 18:29N 34°41' E 135°13'0 0.0
2016-Aug-24 17:29N 34°41' E 135°13'0 0.0
2016-Aug-24 16:29N 34°41' E 135°13'0 0.0
2016-Aug-24 15:29N 34°41' E 135°13'0 0.0
2016-Aug-24 14:17N 34°41' E 135°13'0 0.0
2016-Aug-24 13:29N 34°41' E 135°13'0 0.0
2016-Aug-24 12:29N 34°41' E 135°13'0 0.0
2016-Aug-24 11:29N 34°41' E 135°13'0 0.0
2016-Aug-24 10:23N 34°41' E 135°13'0 0.0
2016-Aug-24 09:11N 34°41' E 135°13'0 0.0
2016-Aug-24 08:29N 34°41' E 135°13'0 0.0
2016-Aug-24 07:23N 34°41' E 135°13'0 0.0
2016-Aug-24 06:29N 34°41' E 135°13'0 0.0
2016-Aug-24 04:29N 34°41' E 135°13'0 0.0
2016-Aug-24 03:34N 34°41' E 135°13'3 3.3
2016-Aug-24 02:32N 34°41' E 135°17'0 0.0
2016-Aug-24 01:33N 34°41' E 135°17'6 6.0
2016-Aug-24 00:33N 34°35' E 135°17'1110.8
2016-Aug-23 23:33N 34°27' E 135°08'1110.6
2016-Aug-23 22:33N 34°19' E 135°00'9 8.9
2016-Aug-23 21:33N 34°10' E 135°00'240 8.9
2016-Aug-22 18:33N 35°09' E 139°44'10 9.9
2016-Aug-22 17:33N 35°19' E 139°43'6 5.7
2016-Aug-22 16:31N 35°24' E 139°41'0 0.0
2016-Aug-22 15:31N 35°24' E 139°41'2 1.8
2016-Aug-22 14:34N 35°23' E 139°42'2 2.4
2016-Aug-22 13:32N 35°21' E 139°44'0 0.0
2016-Aug-22 12:33N 35°21' E 139°44'0 0.0
2016-Aug-22 11:33N 35°21' E 139°44'0 0.0
2016-Aug-22 10:33N 35°21' E 139°44'0 0.0
2016-Aug-22 09:33N 35°21' E 139°44'0 0.0
2016-Aug-22 08:33N 35°21' E 139°44'0 0.0
2016-Aug-22 07:34N 35°21' E 139°44'0 0.0
2016-Aug-22 06:33N 35°21' E 139°44'0 0.1
2016-Aug-22 05:34N 35°21' E 139°44'0 0.2
2016-Aug-22 04:33N 35°21' E 139°44'0 0.1
2016-Aug-22 03:33N 35°21' E 139°44'0 0.0
2016-Aug-22 02:33N 35°21' E 139°44'0 0.0
2016-Aug-22 01:33N 35°21' E 139°44'0 0.0
2016-Aug-22 00:33N 35°21' E 139°44'0 0.0
2016-Aug-21 23:34N 35°21' E 139°44'0 0.1
2016-Aug-21 22:32N 35°21' E 139°44'0 0.0
2016-Aug-21 21:33N 35°21' E 139°44'0 0.1
2016-Aug-21 20:34N 35°21' E 139°44'0 0.0
2016-Aug-21 19:31N 35°21' E 139°44'0 0.0
2016-Aug-21 18:29N 35°21' E 139°44'0 0.0
2016-Aug-21 17:30N 35°21' E 139°44'0 0.0
2016-Aug-21 16:29N 35°21' E 139°44'7 8.0
2016-Aug-21 15:34N 35°14' E 139°47'1312.6
2016-Aug-21 14:33N 35°02' E 139°42'  
2016-Aug-19 10:33N 34°22' E 135°01'1212.3
2016-Aug-19 09:34N 34°30' E 135°12'1211.9
2016-Aug-19 08:33N 34°41' E 135°18'0 0.4
2016-Aug-19 07:22N 34°41' E 135°17'0 0.0
2016-Aug-19 06:28N 34°41' E 135°17'3 3.2
2016-Aug-19 05:33N 34°41' E 135°14'1 0.8
2016-Aug-19 04:22N 34°41' E 135°12'0 0.0
2016-Aug-19 03:22N 34°41' E 135°12'0 0.0
2016-Aug-19 02:28N 34°41' E 135°12'0 0.0
2016-Aug-19 01:28N 34°41' E 135°12'0 0.0
2016-Aug-19 00:22N 34°41' E 135°12'0 0.0
2016-Aug-18 23:28N 34°41' E 135°12'0 0.0
2016-Aug-18 22:22N 34°41' E 135°12'0 0.0
2016-Aug-18 21:28N 34°41' E 135°12'0 0.0
2016-Aug-18 20:22N 34°41' E 135°12'0 0.0
2016-Aug-18 19:28N 34°41' E 135°12'0 0.0
2016-Aug-18 18:22N 34°41' E 135°12'0 0.0
2016-Aug-18 17:22N 34°41' E 135°12'0 0.0
2016-Aug-18 16:28N 34°41' E 135°12'0 0.0
2016-Aug-18 15:28N 34°41' E 135°12'0 0.0
2016-Aug-18 14:28N 34°41' E 135°12'0 0.0
2016-Aug-18 13:28N 34°41' E 135°12'0 0.0
2016-Aug-18 12:28N 34°41' E 135°12'0 0.0
2016-Aug-18 11:28N 34°41' E 135°12'0 0.0
2016-Aug-18 10:28N 34°41' E 135°12'0 0.0
2016-Aug-18 09:28N 34°41' E 135°12'0 0.0
2016-Aug-18 08:22N 34°41' E 135°12'0 0.0
2016-Aug-18 07:28N 34°41' E 135°12'0 0.0
2016-Aug-18 06:28N 34°41' E 135°12'0 0.0
2016-Aug-18 05:28N 34°41' E 135°12'0 0.0
2016-Aug-18 04:28N 34°41' E 135°12'0 0.0
2016-Aug-18 03:28N 34°41' E 135°12'0 0.0
2016-Aug-18 02:28N 34°41' E 135°12'0 0.0
2016-Aug-18 01:22N 34°41' E 135°12'0 0.0
2016-Aug-18 00:28N 34°41' E 135°12'0 0.0
2016-Aug-17 23:22N 34°41' E 135°12'0 0.0
2016-Aug-17 22:28N 34°41' E 135°12'0 0.0
2016-Aug-17 21:28N 34°41' E 135°12'0 0.0
2016-Aug-17 20:28N 34°41' E 135°12'0 0.0
2016-Aug-17 19:28N 34°41' E 135°12'0 0.0
2016-Aug-17 18:28N 34°41' E 135°12'0 0.0
2016-Aug-17 17:28N 34°41' E 135°12'0 0.0
2016-Aug-17 16:28N 34°41' E 135°12'0 0.0
2016-Aug-17 15:28N 34°41' E 135°12'0 0.0
2016-Aug-17 14:28N 34°41' E 135°12'0 0.0
2016-Aug-17 13:28N 34°41' E 135°12'0 0.0
2016-Aug-17 12:28N 34°41' E 135°12'0 0.0
2016-Aug-17 11:28N 34°41' E 135°12'0 0.0
2016-Aug-17 10:28N 34°41' E 135°12'0 0.0
2016-Aug-17 09:22N 34°41' E 135°12'0 0.0
2016-Aug-17 08:28N 34°41' E 135°12'0 0.0
2016-Aug-17 07:28N 34°41' E 135°12'0 0.0
2016-Aug-17 06:16N 34°41' E 135°12'0 0.0
2016-Aug-17 04:28N 34°41' E 135°12'0 0.0
2016-Aug-17 03:28N 34°41' E 135°12'0 0.0
2016-Aug-17 02:22N 34°41' E 135°12'0 0.0
2016-Aug-17 01:16N 34°41' E 135°12'1 1.4
2016-Aug-17 00:33N 34°41' E 135°14'3 2.6
2016-Aug-16 23:26N 34°41' E 135°17'3 3.6
2016-Aug-16 22:33N 34°39' E 135°19'0 0.0
2016-Aug-16 21:31N 34°39' E 135°19'0 0.0
2016-Aug-16 20:31N 34°39' E 135°19'0 0.0
2016-Aug-16 19:31N 34°39' E 135°19'0 0.1
2016-Aug-16 18:32N 34°39' E 135°19'9 9.5
2016-Aug-16 17:33N 34°31' E 135°13'1111.0
2016-Aug-16 16:32N 34°23' E 135°03'9 9.6
2016-Aug-16 15:33N 34°14' E 134°59'1110.8
2016-Aug-16 14:31N 34°03' E 135°00'  
Track history (hours):
 
Tides and Currents Weather Stations Pressure Air Temp Water Temp Dewpoint Dewpoint Depression Visibility Wind Speed Wind Dir Waves Ship Positions

Daikoku

Last reported at 2016-Aug-26 10:16 UTC. Time now 2016-Aug-27 01:13 UTC.
Position N 34°22' E 135°01'.

Length 95 m; draft 3.4 m.

Type: Cargo ship. MMSI: 431003009.

Date/timePositionNaut miles runAvg speedWind from/ knotsBaromVisibWave heightAir tempDewpointWater temp
2016-Aug-26 10:16N 34°22' E 135°01'811.1
2016-Aug-26 09:33N 34°28' E 135°08'1111.5
2016-Aug-26 08:33N 34°36' E 135°17'6 5.4
2016-Aug-26 07:31N 34°41' E 135°17'0 0.0
2016-Aug-26 06:31N 34°41' E 135°17'0 0.0
2016-Aug-26 04:31N 34°41' E 135°17'1 0.8
2016-Aug-26 03:33N 34°41' E 135°18'4 3.9
2016-Aug-26 02:29N 34°41' E 135°13'0 0.0
2016-Aug-26 01:29N 34°41' E 135°13'0 0.0
2016-Aug-26 00:29N 34°41' E 135°13'0 0.0
2016-Aug-25 23:29N 34°41' E 135°13'0 0.0
2016-Aug-25 22:29N 34°41' E 135°13'0 0.0
2016-Aug-25 21:29N 34°41' E 135°13'0 0.0
2016-Aug-25 20:23N 34°41' E 135°13'0 0.0
2016-Aug-25 19:29N 34°41' E 135°13'0 0.0
2016-Aug-25 18:29N 34°41' E 135°13'0 0.0
2016-Aug-25 17:29N 34°41' E 135°13'0 0.0
2016-Aug-25 16:29N 34°41' E 135°13'0 0.0
2016-Aug-25 15:29N 34°41' E 135°13'0 0.0
2016-Aug-25 14:29N 34°41' E 135°13'0 0.0
2016-Aug-25 13:29N 34°41' E 135°13'0 0.0
2016-Aug-25 12:29N 34°41' E 135°13'0 0.0
2016-Aug-25 11:29N 34°41' E 135°13'0 0.0
2016-Aug-25 10:23N 34°41' E 135°13'0 0.0
2016-Aug-25 09:29N 34°41' E 135°13'0 0.0
2016-Aug-25 08:29N 34°41' E 135°13'0 0.0
2016-Aug-25 07:11N 34°41' E 135°13'0 0.0
2016-Aug-25 06:23N 34°41' E 135°13'0 0.0
2016-Aug-25 04:29N 34°41' E 135°13'0 0.0
2016-Aug-25 03:29N 34°41' E 135°13'0 0.0
2016-Aug-25 02:29N 34°41' E 135°13'0 0.0
2016-Aug-25 01:29N 34°41' E 135°13'0 0.0
2016-Aug-25 00:29N 34°41' E 135°13'0 0.0
2016-Aug-24 23:29N 34°41' E 135°13'0 0.0
2016-Aug-24 22:23N 34°41' E 135°13'0 0.0
2016-Aug-24 21:23N 34°41' E 135°13'0 0.0
2016-Aug-24 20:29N 34°41' E 135°13'0 0.0
2016-Aug-24 19:29N 34°41' E 135°13'0 0.0
2016-Aug-24 18:29N 34°41' E 135°13'0 0.0
2016-Aug-24 17:29N 34°41' E 135°13'0 0.0
2016-Aug-24 16:29N 34°41' E 135°13'0 0.0
2016-Aug-24 15:29N 34°41' E 135°13'0 0.0
2016-Aug-24 14:17N 34°41' E 135°13'0 0.0
2016-Aug-24 13:29N 34°41' E 135°13'0 0.0
2016-Aug-24 12:29N 34°41' E 135°13'0 0.0
2016-Aug-24 11:29N 34°41' E 135°13'0 0.0
2016-Aug-24 10:23N 34°41' E 135°13'0 0.0
2016-Aug-24 09:11N 34°41' E 135°13'0 0.0
2016-Aug-24 08:29N 34°41' E 135°13'0 0.0
2016-Aug-24 07:23N 34°41' E 135°13'0 0.0
2016-Aug-24 06:29N 34°41' E 135°13'0 0.0
2016-Aug-24 04:29N 34°41' E 135°13'0 0.0
2016-Aug-24 03:34N 34°41' E 135°13'3 3.3
2016-Aug-24 02:32N 34°41' E 135°17'0 0.0
2016-Aug-24 01:33N 34°41' E 135°17'6 6.0
2016-Aug-24 00:33N 34°35' E 135°17'1110.8
2016-Aug-23 23:33N 34°27' E 135°08'1110.6
2016-Aug-23 22:33N 34°19' E 135°00'9 8.9
2016-Aug-23 21:33N 34°10' E 135°00'240 8.9
2016-Aug-22 18:33N 35°09' E 139°44'10 9.9
2016-Aug-22 17:33N 35°19' E 139°43'6 5.7
2016-Aug-22 16:31N 35°24' E 139°41'0 0.0
2016-Aug-22 15:31N 35°24' E 139°41'2 1.8
2016-Aug-22 14:34N 35°23' E 139°42'2 2.4
2016-Aug-22 13:32N 35°21' E 139°44'0 0.0
2016-Aug-22 12:33N 35°21' E 139°44'0 0.0
2016-Aug-22 11:33N 35°21' E 139°44'0 0.0
2016-Aug-22 10:33N 35°21' E 139°44'0 0.0
2016-Aug-22 09:33N 35°21' E 139°44'0 0.0
2016-Aug-22 08:33N 35°21' E 139°44'0 0.0
2016-Aug-22 07:34N 35°21' E 139°44'0 0.0
2016-Aug-22 06:33N 35°21' E 139°44'0 0.1
2016-Aug-22 05:34N 35°21' E 139°44'0 0.2
2016-Aug-22 04:33N 35°21' E 139°44'0 0.1
2016-Aug-22 03:33N 35°21' E 139°44'0 0.0
2016-Aug-22 02:33N 35°21' E 139°44'0 0.0
2016-Aug-22 01:33N 35°21' E 139°44'0 0.0
2016-Aug-22 00:33N 35°21' E 139°44'0 0.0
2016-Aug-21 23:34N 35°21' E 139°44'0 0.1
2016-Aug-21 22:32N 35°21' E 139°44'0 0.0
2016-Aug-21 21:33N 35°21' E 139°44'0 0.1
2016-Aug-21 20:34N 35°21' E 139°44'0 0.0
2016-Aug-21 19:31N 35°21' E 139°44'0 0.0
2016-Aug-21 18:29N 35°21' E 139°44'0 0.0
2016-Aug-21 17:30N 35°21' E 139°44'0 0.0
2016-Aug-21 16:29N 35°21' E 139°44'7 8.0
2016-Aug-21 15:34N 35°14' E 139°47'1312.6
2016-Aug-21 14:33N 35°02' E 139°42'  
2016-Aug-19 10:33N 34°22' E 135°01'1212.3
2016-Aug-19 09:34N 34°30' E 135°12'1211.9
2016-Aug-19 08:33N 34°41' E 135°18'0 0.4
2016-Aug-19 07:22N 34°41' E 135°17'0 0.0
2016-Aug-19 06:28N 34°41' E 135°17'3 3.2
2016-Aug-19 05:33N 34°41' E 135°14'1 0.8
2016-Aug-19 04:22N 34°41' E 135°12'0 0.0
2016-Aug-19 03:22N 34°41' E 135°12'0 0.0
2016-Aug-19 02:28N 34°41' E 135°12'0 0.0
2016-Aug-19 01:28N 34°41' E 135°12'0 0.0
2016-Aug-19 00:22N 34°41' E 135°12'0 0.0
2016-Aug-18 23:28N 34°41' E 135°12'0 0.0
2016-Aug-18 22:22N 34°41' E 135°12'0 0.0
2016-Aug-18 21:28N 34°41' E 135°12'0 0.0
2016-Aug-18 20:22N 34°41' E 135°12'0 0.0
2016-Aug-18 19:28N 34°41' E 135°12'0 0.0
2016-Aug-18 18:22N 34°41' E 135°12'0 0.0
2016-Aug-18 17:22N 34°41' E 135°12'0 0.0
2016-Aug-18 16:28N 34°41' E 135°12'0 0.0
2016-Aug-18 15:28N 34°41' E 135°12'0 0.0
2016-Aug-18 14:28N 34°41' E 135°12'0 0.0
2016-Aug-18 13:28N 34°41' E 135°12'0 0.0
2016-Aug-18 12:28N 34°41' E 135°12'0 0.0
2016-Aug-18 11:28N 34°41' E 135°12'0 0.0
2016-Aug-18 10:28N 34°41' E 135°12'0 0.0
2016-Aug-18 09:28N 34°41' E 135°12'0 0.0
2016-Aug-18 08:22N 34°41' E 135°12'0 0.0
2016-Aug-18 07:28N 34°41' E 135°12'0 0.0
2016-Aug-18 06:28N 34°41' E 135°12'0 0.0
2016-Aug-18 05:28N 34°41' E 135°12'0 0.0
2016-Aug-18 04:28N 34°41' E 135°12'0 0.0
2016-Aug-18 03:28N 34°41' E 135°12'0 0.0
2016-Aug-18 02:28N 34°41' E 135°12'0 0.0
2016-Aug-18 01:22N 34°41' E 135°12'0 0.0
2016-Aug-18 00:28N 34°41' E 135°12'0 0.0
2016-Aug-17 23:22N 34°41' E 135°12'0 0.0
2016-Aug-17 22:28N 34°41' E 135°12'0 0.0
2016-Aug-17 21:28N 34°41' E 135°12'0 0.0
2016-Aug-17 20:28N 34°41' E 135°12'0 0.0
2016-Aug-17 19:28N 34°41' E 135°12'0 0.0
2016-Aug-17 18:28N 34°41' E 135°12'0 0.0
2016-Aug-17 17:28N 34°41' E 135°12'0 0.0
2016-Aug-17 16:28N 34°41' E 135°12'0 0.0
2016-Aug-17 15:28N 34°41' E 135°12'0 0.0
2016-Aug-17 14:28N 34°41' E 135°12'0 0.0
2016-Aug-17 13:28N 34°41' E 135°12'0 0.0
2016-Aug-17 12:28N 34°41' E 135°12'0 0.0
2016-Aug-17 11:28N 34°41' E 135°12'0 0.0
2016-Aug-17 10:28N 34°41' E 135°12'0 0.0
2016-Aug-17 09:22N 34°41' E 135°12'0 0.0
2016-Aug-17 08:28N 34°41' E 135°12'0 0.0
2016-Aug-17 07:28N 34°41' E 135°12'0 0.0
2016-Aug-17 06:16N 34°41' E 135°12'0 0.0
2016-Aug-17 04:28N 34°41' E 135°12'0 0.0
2016-Aug-17 03:28N 34°41' E 135°12'0 0.0
2016-Aug-17 02:22N 34°41' E 135°12'0 0.0
2016-Aug-17 01:16N 34°41' E 135°12'1 1.4
2016-Aug-17 00:33N 34°41' E 135°14'3 2.6
2016-Aug-16 23:26N 34°41' E 135°17'3 3.6
2016-Aug-16 22:33N 34°39' E 135°19'0 0.0
2016-Aug-16 21:31N 34°39' E 135°19'0 0.0
2016-Aug-16 20:31N 34°39' E 135°19'0 0.0
2016-Aug-16 19:31N 34°39' E 135°19'0 0.1
2016-Aug-16 18:32N 34°39' E 135°19'9 9.5
2016-Aug-16 17:33N 34°31' E 135°13'1111.0
2016-Aug-16 16:32N 34°23' E 135°03'9 9.6
2016-Aug-16 15:33N 34°14' E 134°59'1110.8
2016-Aug-16 14:31N 34°03' E 135°00'  

Dump ship's entire track history